Anderson, SC (29622)

4:34 PM EDT on July 29, 2015 (GMT -0400)
Southwood Area | | Change Station
CLOSE
Current Station
Personal Weather Station
Location: Anderson, SC
Elevation: 722 ft
Nearby Weather Stations

Elev 722 ft 34.49 °N, 82.66 °W | Updated 2 seconds ago

Heavy Thunderstorms and Rain
Heavy Thunderstorm Rain
79.0 °F
Feels Like 83 °F
N
0.0
Wind Variable Wind from NW
Gusts 2.0 mph

Today
High -- | Low -- °F
--% Chance of Precip.
Yesterday
High -- | Low -- °F
Precip. -- in
6:38 AM 8:35 PM
Waxing Gibbous, 97% visible
Pressure 29.96 in
Visibility 1.8 miles
Clouds Mostly Cloudy 4000 ft
Mostly Cloudy 5500 ft
Overcast 8000 ft
Heat Index 83 °F
Dew Point 75 °F
Humidity 87%
Rainfall 0.61 in
Snow Depth Not available.
UV 2 out of 12
Pollen 3.40 out of 12
Air Quality Not available.
Flu Activity Not available.
SPECI KAND 292032Z AUTO 08019G28KT 1 3/4SM +TSRA BKN040 BKN055 OVC080 27/23 A2996 RMK AO2 PK WND 08029/2030 LTG DSNT NE RAB29 TSB30 P0001 T02670228

More Conditions Fewer Conditions

Pressure 29.96 in
Visibility 1.8 miles
Clouds Mostly Cloudy 4000 ft
Mostly Cloudy 5500 ft
Overcast 8000 ft
Heat Index 83 °F
Dew Point 75 °F
Humidity 87%
Rainfall 0.61 in
Snow Depth Not available.
UV 2 out of 12
Pollen 3.40 out of 12
Air Quality Not available.
Flu Activity Not available.
SPECI KAND 292032Z AUTO 08019G28KT 1 3/4SM +TSRA BKN040 BKN055 OVC080 27/23 A2996 RMK AO2 PK WND 08029/2030 LTG DSNT NE RAB29 TSB30 P0001 T02670228

More Conditions Fewer Conditions

10-Day Weather Forecast

×

Almanac

Astronomy

Jul. 29, 2015 Rise Set
Actual Time
Civil Twilight
Nautical Twilight
Astronomical Twilight
Moon
Length of Visible Light
Length of Day
Tomorrow will be .
, % of the Moon is Illuminated

Today's Extremes

State Highs State Lows

Community

WunderPhotos

Upload Photos

1,842,162 photos uploaded!

WunderBlogs® & News

Nearby

Air Quality

  Air Quality AQ Index Pollutant
Not available.

Snow Depth

Station Depth Elevation

Earthquake Activity

City Distance Mag. Time & Date
Minimum magnitude displayed is 2.5.

Coastal Water Temperatures

Place Temperature

Stations

Nearby Weather Stations

Station Location Temp. Windchill Dew Point Humidity Wind Precip. Elev Updated Type